Arcadia, Iowa
Current Conditions -  °F | °C
As of 11:55 PM on Saturday 22 Nov 2014 (Local Time) from KCIN Reporting Station
Overcast Overcast  
Wind Chill: 52°   Ceiling: 800
Heat Index: 52°   Visibility: 8mi
Dew Point: 52°   Wind: 18mph
Humidity: 100%   Direction: 210°SSW
Pressure: 29.56"   Gusts: 25mph
Location:  42.09°N, 95.05°W
Report Text: KCIN 230555Z AUTO 21016G22KT 8SM BKN008 OVC012 11/11 A2956 RMK AO2
Loading
Personal Weather Stations






























Interactive Weather Map New forecast layout! Learn more

10-Day Weather Forecast

Advertisements
Track Severe Weather on mobile